createdAt,value
2022-11-16T00:00:25.962Z,35
2022-11-16T00:01:31.269Z,34.9
2022-11-16T00:02:38.032Z,35.6
2022-11-16T00:03:44.108Z,33.5
2022-11-16T00:04:50.191Z,33.5
2022-11-16T00:05:56.395Z,33.5
2022-11-16T00:07:01.974Z,32.7
2022-11-16T00:08:09.193Z,34
2022-11-16T00:09:15.581Z,33.9
2022-11-16T00:10:24.693Z,31.7
2022-11-16T00:11:29.933Z,33.7
2022-11-16T00:12:34.967Z,33.2
2022-11-16T00:13:40.177Z,31.6
2022-11-16T00:14:44.977Z,34
2022-11-16T00:15:50.701Z,32.7
2022-11-16T00:16:55.841Z,32.7
2022-11-16T00:18:00.820Z,33.1
2022-11-16T00:19:05.814Z,34.5
2022-11-16T00:20:11.254Z,33.1
2022-11-16T00:21:16.572Z,34.3
2022-11-16T00:22:22.285Z,35.1
2022-11-16T00:23:27.572Z,34.9
2022-11-16T00:24:33.382Z,34.6
2022-11-16T00:25:38.725Z,35.3
2022-11-16T00:26:45.013Z,35.3
2022-11-16T00:27:50.422Z,35.3
2022-11-16T00:28:55.724Z,35.3
2022-11-16T00:30:01.164Z,34.5
2022-11-16T00:31:06.987Z,34.2
2022-11-16T00:32:11.645Z,34.2
2022-11-16T00:33:17.056Z,34.2
2022-11-16T00:34:22.697Z,34.6
2022-11-16T00:35:30.504Z,35.3
2022-11-16T00:36:43.059Z,35.6
2022-11-16T00:37:50.832Z,33.2
2022-11-16T00:38:57.553Z,33.5
2022-11-16T00:40:02.721Z,33.5
2022-11-16T00:41:08.062Z,34.2
2022-11-16T00:42:13.612Z,34.8
2022-11-16T00:43:19.549Z,36.1
2022-11-16T00:44:24.535Z,34.6
2022-11-16T00:45:30.001Z,37.3
2022-11-16T00:46:35.952Z,37.8
2022-11-16T00:47:41.628Z,33.7
2022-11-16T00:48:47.581Z,36.5
2022-11-16T00:49:52.296Z,36.5
2022-11-16T00:50:59.712Z,36.5
2022-11-16T00:52:05.802Z,36.5
2022-11-16T00:53:10.832Z,36.5
2022-11-16T00:54:16.909Z,35
2022-11-16T00:55:22.170Z,35.5
2022-11-16T00:56:28.036Z,35.1
2022-11-16T00:57:33.917Z,33.1
2022-11-16T00:58:39.923Z,36.8
2022-11-16T00:59:45.620Z,35.4
2022-11-16T01:00:50.839Z,35.5
2022-11-16T01:01:56.281Z,34.9
2022-11-16T01:03:01.289Z,36.2
2022-11-16T01:04:07.666Z,34.9
2022-11-16T01:05:12.445Z,35.1
2022-11-16T01:06:17.713Z,36.4
2022-11-16T01:07:24.294Z,35.8
2022-11-16T01:08:34.819Z,34.5
2022-11-16T01:09:40.141Z,34.7
2022-11-16T01:10:45.336Z,34
2022-11-16T01:11:50.177Z,34.2
2022-11-16T01:13:00.974Z,33.8
2022-11-16T01:14:06.621Z,34.3
2022-11-16T01:15:12.418Z,34.5
2022-11-16T01:16:19.361Z,34.5
2022-11-16T01:17:27.210Z,34.5
2022-11-16T01:18:35.544Z,34.5
2022-11-16T01:19:40.296Z,34.5
2022-11-16T01:20:46.017Z,34.5
2022-11-16T01:21:53.919Z,34.3
2022-11-16T01:23:00.103Z,33.5
2022-11-16T01:24:05.934Z,33.8
2022-11-16T01:25:11.235Z,33.4
2022-11-16T01:26:16.251Z,33.1
2022-11-16T01:27:20.981Z,34.3
2022-11-16T01:28:26.071Z,34.3
2022-11-16T01:29:30.484Z,34.3
2022-11-16T01:30:35.233Z,35.1
2022-11-16T01:31:40.704Z,33.4
2022-11-16T01:32:45.567Z,33.4
2022-11-16T01:33:50.637Z,33.4
2022-11-16T01:34:55.602Z,33.4
2022-11-16T01:36:00.779Z,33.4
2022-11-16T01:37:05.761Z,34.5
2022-11-16T01:38:10.505Z,33.4
2022-11-16T01:39:15.429Z,34.2
2022-11-16T01:40:20.184Z,34.2
2022-11-16T01:41:24.643Z,32.7
2022-11-16T01:42:29.273Z,34
2022-11-16T01:43:34.017Z,34.8
2022-11-16T01:44:49.230Z,33
2022-11-16T01:45:59.933Z,33.4
2022-11-16T01:47:05.449Z,34.2
2022-11-16T01:48:10.536Z,32.6
2022-11-16T01:49:15.128Z,33.1
2022-11-16T01:50:19.605Z,33.1
2022-11-16T01:51:24.547Z,34.4
2022-11-16T01:52:29.537Z,34.4
2022-11-16T01:53:34.744Z,34.4
2022-11-16T01:54:39.690Z,34.4
2022-11-16T01:55:44.581Z,34.4
2022-11-16T01:56:49.286Z,34.4
2022-11-16T01:57:54.157Z,34.4
2022-11-16T01:58:58.908Z,34.4
2022-11-16T02:00:03.596Z,34.4
2022-11-16T02:01:08.521Z,34.4
2022-11-16T02:02:13.376Z,33.9
2022-11-16T02:03:18.427Z,32.8
2022-11-16T02:04:23.491Z,32.7
2022-11-16T02:05:28.416Z,32.5
2022-11-16T02:06:40.656Z,32.4
2022-11-16T02:07:45.384Z,33.2
2022-11-16T02:08:55.439Z,33.2
2022-11-16T02:10:15.261Z,33.2
2022-11-16T02:11:20.201Z,33.2
2022-11-16T02:12:30.330Z,33.5
2022-11-16T02:13:41.004Z,32
2022-11-16T02:14:50.552Z,31.5
2022-11-16T02:15:59.986Z,33.2
2022-11-16T02:17:14.841Z,34.3
2022-11-16T02:18:22.141Z,33.3
2022-11-16T02:19:36.898Z,32.9
2022-11-16T02:20:47.722Z,32.5
2022-11-16T02:22:00.917Z,33.4
2022-11-16T02:23:16.153Z,34.3
2022-11-16T02:24:26.028Z,32.7
2022-11-16T02:25:41.185Z,36.4
2022-11-16T02:26:50.736Z,37.3
2022-11-16T02:28:00.605Z,37.1
2022-11-16T02:29:15.618Z,37.9
2022-11-16T02:30:25.725Z,38.2
2022-11-16T02:31:30.920Z,38
2022-11-16T02:32:35.775Z,36.7
2022-11-16T02:33:50.665Z,36.7
2022-11-16T02:34:55.681Z,35.3
2022-11-16T02:36:10.812Z,36.1
2022-11-16T02:37:15.564Z,36.7
2022-11-16T02:38:20.153Z,34.9
2022-11-16T02:39:24.508Z,36.9
2022-11-16T02:40:29.083Z,35.9
2022-11-16T02:41:33.736Z,36.2
2022-11-16T02:42:38.291Z,39.5
2022-11-16T02:43:43.207Z,37.6
2022-11-16T02:44:47.894Z,35.6
2022-11-16T02:45:52.636Z,35.6
2022-11-16T02:46:57.133Z,35.6
2022-11-16T02:48:05.185Z,35.6
2022-11-16T02:49:09.880Z,36
2022-11-16T02:50:14.864Z,34.2
2022-11-16T02:51:19.645Z,34.2
2022-11-16T02:52:24.144Z,35.9
2022-11-16T02:53:28.979Z,39.8
2022-11-16T02:54:33.559Z,39.8
2022-11-16T02:55:38.207Z,39.8
2022-11-16T02:56:42.839Z,39.8
2022-11-16T02:57:57.835Z,37.4
2022-11-16T02:59:02.713Z,38.6
2022-11-16T03:00:07.603Z,38.2
2022-11-16T03:01:17.742Z,37.4
2022-11-16T03:02:22.805Z,38.9
2022-11-16T03:03:33.828Z,38
2022-11-16T03:04:38.856Z,37.5
2022-11-16T03:05:48.403Z,37.5
2022-11-16T03:06:58.133Z,35.2
2022-11-16T03:08:02.788Z,37.3
2022-11-16T03:09:10.652Z,36.2
2022-11-16T03:10:15.735Z,37.5
2022-11-16T03:11:25.787Z,35.2
2022-11-16T03:12:36.231Z,37
2022-11-16T03:13:40.983Z,36.1
2022-11-16T03:14:45.581Z,35
2022-11-16T03:15:55.036Z,35.4
2022-11-16T03:17:00.496Z,35.9
2022-11-16T03:18:05.179Z,36.7
2022-11-16T03:19:09.880Z,33.4
2022-11-16T03:20:15.000Z,33.4
2022-11-16T03:21:22.970Z,33.4
2022-11-16T03:22:38.016Z,29.6
2022-11-16T03:23:49.152Z,31.1
2022-11-16T03:24:53.663Z,31.3
2022-11-16T03:25:58.223Z,29.3
2022-11-16T03:27:03.131Z,29.9
2022-11-16T03:28:18.047Z,31.3
2022-11-16T03:29:22.815Z,29.5
2022-11-16T03:30:27.727Z,26.7
2022-11-16T03:31:32.158Z,28.1
2022-11-16T03:32:36.810Z,28.3
2022-11-16T03:33:46.269Z,28.7
2022-11-16T03:34:51.084Z,26.6
2022-11-16T03:35:55.893Z,28.3
2022-11-16T03:37:03.063Z,25.9
2022-11-16T03:38:07.743Z,26
2022-11-16T03:39:12.747Z,25.1
2022-11-16T03:40:17.251Z,26.1
2022-11-16T03:41:21.683Z,28
2022-11-16T03:42:26.504Z,26.8
2022-11-16T03:43:31.375Z,26.1
2022-11-16T03:44:35.839Z,25.3
2022-11-16T03:45:40.235Z,23.6
2022-11-16T03:46:45.196Z,22.5
2022-11-16T03:47:50.051Z,22.9
2022-11-16T03:48:54.776Z,23.9
2022-11-16T03:49:59.439Z,22.5
2022-11-16T03:51:03.832Z,22.4
2022-11-16T03:52:08.720Z,24.2
2022-11-16T03:53:13.216Z,24
2022-11-16T03:54:17.921Z,22.6
2022-11-16T03:55:22.680Z,22.6
2022-11-16T03:56:27.676Z,22.6
2022-11-16T03:57:32.324Z,22.6
2022-11-16T03:58:37.519Z,24.6
2022-11-16T03:59:42.431Z,24.5
2022-11-16T04:00:48.082Z,24.5
2022-11-16T04:01:53.179Z,23.6
2022-11-16T04:02:58.059Z,25.3
2022-11-16T04:04:02.907Z,24.2
2022-11-16T04:05:07.911Z,24.2
2022-11-16T04:06:18.485Z,24.4
2022-11-16T04:07:28.044Z,25.3
2022-11-16T04:08:37.662Z,24.9
2022-11-16T04:09:47.328Z,24.9
2022-11-16T04:10:57.054Z,26
2022-11-16T04:12:06.775Z,25.5
2022-11-16T04:13:16.983Z,26.4
2022-11-16T04:14:29.910Z,26.6
2022-11-16T04:15:39.958Z,25.6
2022-11-16T04:16:49.558Z,25.3
2022-11-16T04:17:59.079Z,24.1
2022-11-16T04:19:09.015Z,23.4
2022-11-16T04:20:19.522Z,22.4
2022-11-16T04:21:29.466Z,22.1
2022-11-16T04:22:39.084Z,21.9
2022-11-16T04:23:53.694Z,22.3
2022-11-16T04:25:03.409Z,21.1
2022-11-16T04:26:11.398Z,21.7
2022-11-16T04:27:16.251Z,21
2022-11-16T04:28:26.112Z,20.8
2022-11-16T04:29:30.472Z,20.8
2022-11-16T04:30:35.639Z,20.8
2022-11-16T04:31:51.006Z,20.3
2022-11-16T04:33:01.171Z,21.2
2022-11-16T04:34:11.292Z,20.9
2022-11-16T04:35:21.339Z,21.4
2022-11-16T04:36:31.106Z,21.4
2022-11-16T04:37:41.086Z,21.4
2022-11-16T04:38:50.783Z,21.4
2022-11-16T04:39:55.590Z,21.5
2022-11-16T04:41:00.551Z,20.4
2022-11-16T04:42:05.018Z,20.4
2022-11-16T04:43:16.623Z,20.4
2022-11-16T04:44:23.739Z,20.4
2022-11-16T04:45:26.347Z,20.4
2022-11-16T04:46:36.616Z,20.4
2022-11-16T04:47:46.704Z,20.4
2022-11-16T04:48:51.572Z,20.4
2022-11-16T04:49:56.315Z,20.4
2022-11-16T04:51:01.015Z,23.1
2022-11-16T04:52:06.255Z,22.7
2022-11-16T04:53:11.134Z,23.7
2022-11-16T04:54:16.182Z,22.8
2022-11-16T04:55:20.610Z,21.9
2022-11-16T04:56:25.268Z,23.1
2022-11-16T04:57:29.895Z,23.1
2022-11-16T04:58:35.065Z,23.1
2022-11-16T04:59:39.389Z,23.1
2022-11-16T05:00:44.267Z,23.1
2022-11-16T05:01:48.758Z,18
2022-11-16T05:03:01.455Z,16.7
2022-11-16T05:04:03.730Z,16.7
2022-11-16T05:05:08.899Z,16.7
2022-11-16T05:06:13.559Z,16.7
2022-11-16T05:07:18.241Z,16.2
2022-11-16T05:08:23.172Z,17.2
2022-11-16T05:09:27.911Z,16.7
2022-11-16T05:10:32.799Z,17.6
2022-11-16T05:11:37.243Z,18.2
2022-11-16T05:12:41.913Z,18
2022-11-16T05:13:46.834Z,18.5
2022-11-16T05:14:51.503Z,18.7
2022-11-16T05:15:56.277Z,19.4
2022-11-16T05:17:00.997Z,18.9
2022-11-16T05:18:06.091Z,21.8
2022-11-16T05:19:10.595Z,22.1
2022-11-16T05:20:20.439Z,24.1
2022-11-16T05:21:30.311Z,24.5
2022-11-16T05:22:35.039Z,23.5
2022-11-16T05:23:40.195Z,24.1
2022-11-16T05:24:50.312Z,22.2
2022-11-16T05:25:55.340Z,18.8
2022-11-16T05:27:00.383Z,17.2
2022-11-16T05:28:05.468Z,16.8
2022-11-16T05:29:10.411Z,16.7
2022-11-16T05:30:15.303Z,15.8
2022-11-16T05:31:20.973Z,16.1
2022-11-16T05:32:26.341Z,16.7
2022-11-16T05:33:32.080Z,17.2
2022-11-16T05:34:37.467Z,17.6
2022-11-16T05:35:42.692Z,19.6
2022-11-16T05:36:47.795Z,20.5
2022-11-16T05:37:53.955Z,21
2022-11-16T05:38:58.648Z,23.5
2022-11-16T05:40:03.906Z,25.9
2022-11-16T05:41:09.245Z,26.6
2022-11-16T05:42:14.055Z,23.2
2022-11-16T05:43:18.717Z,35.8
2022-11-16T05:44:23.479Z,45.5
2022-11-16T05:45:28.273Z,33.4
2022-11-16T05:46:33.037Z,36.7
2022-11-16T05:47:37.613Z,36.7
2022-11-16T05:48:41.952Z,36.7
2022-11-16T05:49:46.909Z,36.7
2022-11-16T05:50:51.848Z,36.7
2022-11-16T05:52:00.560Z,36.7
2022-11-16T05:53:05.024Z,36.7
2022-11-16T05:54:09.771Z,34.8
2022-11-16T05:55:14.761Z,30.4
2022-11-16T05:56:19.586Z,26.1
2022-11-16T05:57:24.070Z,26.1
2022-11-16T05:58:28.691Z,26.1
2022-11-16T05:59:33.126Z,26.1
2022-11-16T06:00:37.688Z,19.1
2022-11-16T06:01:42.271Z,20.2
2022-11-16T06:02:46.732Z,20.3
2022-11-16T06:03:51.435Z,19.9
2022-11-16T06:04:56.369Z,20.4
2022-11-16T06:06:01.321Z,20.4
2022-11-16T06:07:06.319Z,19.1
2022-11-16T06:08:17.740Z,20.1
2022-11-16T06:09:25.691Z,21
2022-11-16T06:10:30.332Z,19.2
2022-11-16T06:11:36.179Z,21.5
2022-11-16T06:12:39.400Z,20.6
2022-11-16T06:13:44.109Z,20.9
2022-11-16T06:14:48.968Z,22.4
2022-11-16T06:15:56.968Z,22
2022-11-16T06:16:58.752Z,22.4
2022-11-16T06:18:03.284Z,21.8
2022-11-16T06:19:08.000Z,23.2
2022-11-16T06:20:12.421Z,23.2
2022-11-16T06:21:17.017Z,22.7
2022-11-16T06:22:21.743Z,22.6
2022-11-16T06:23:26.300Z,23.7
2022-11-16T06:24:31.508Z,23.6
2022-11-16T06:25:35.918Z,23.4
2022-11-16T06:26:40.444Z,23
2022-11-16T06:27:45.140Z,23.5
2022-11-16T06:28:49.712Z,23.6
2022-11-16T06:29:54.453Z,23.5
2022-11-16T06:30:59.304Z,23.3
2022-11-16T06:32:04.017Z,22.2
2022-11-16T06:33:08.603Z,22.6
2022-11-16T06:34:13.092Z,23.3
2022-11-16T06:35:17.701Z,23.2
2022-11-16T06:36:22.668Z,23.9
2022-11-16T06:37:27.689Z,23.2
2022-11-16T06:38:32.738Z,23.9
2022-11-16T06:39:36.682Z,23.4
2022-11-16T06:40:41.449Z,24
2022-11-16T06:41:46.262Z,23.5
2022-11-16T06:42:51.292Z,22.1
2022-11-16T06:43:56.065Z,22.3
2022-11-16T06:45:00.672Z,21.2
2022-11-16T06:46:05.271Z,21.8
2022-11-16T06:47:09.909Z,22.3
2022-11-16T06:48:14.796Z,22.9
2022-11-16T06:49:19.400Z,23.2
2022-11-16T06:50:24.202Z,23.3
2022-11-16T06:51:29.112Z,24.3
2022-11-16T06:52:33.936Z,23
2022-11-16T06:53:38.647Z,22.4
2022-11-16T06:54:43.826Z,22.1
2022-11-16T06:55:48.624Z,22.3
2022-11-16T06:56:53.220Z,22.9
2022-11-16T06:57:57.840Z,21.3
2022-11-16T06:59:02.416Z,21.2
2022-11-16T07:00:07.223Z,20.2
2022-11-16T07:01:12.273Z,21.4
2022-11-16T07:02:16.947Z,22.2
2022-11-16T07:03:21.304Z,23.2
2022-11-16T07:04:25.871Z,21.6
2022-11-16T07:05:30.653Z,22.8
2022-11-16T07:06:35.323Z,23.4
2022-11-16T07:07:40.094Z,22.6
2022-11-16T07:08:44.935Z,21.6
2022-11-16T07:09:49.804Z,21.9
2022-11-16T07:10:54.632Z,22.5
2022-11-16T07:11:59.340Z,22.4
2022-11-16T07:13:04.231Z,23.8
2022-11-16T07:14:08.764Z,22.8
2022-11-16T07:15:13.323Z,24.3
2022-11-16T07:16:17.888Z,24.7
2022-11-16T07:17:22.739Z,23.9
2022-11-16T07:18:27.676Z,25.1
2022-11-16T07:19:38.012Z,24.3
2022-11-16T07:20:42.464Z,23.7
2022-11-16T07:21:46.964Z,24.8
2022-11-16T07:22:51.957Z,24.9
2022-11-16T07:23:56.760Z,25.5
2022-11-16T07:25:01.491Z,25.8
2022-11-16T07:26:06.556Z,26.1
2022-11-16T07:27:11.576Z,25.5
2022-11-16T07:28:16.061Z,25.9
2022-11-16T07:29:20.802Z,24.8
2022-11-16T07:30:25.467Z,26
2022-11-16T07:31:30.124Z,25.7
2022-11-16T07:32:35.007Z,26.5
2022-11-16T07:33:39.392Z,25.1
2022-11-16T07:34:43.956Z,25.8
2022-11-16T07:35:48.327Z,26.9
2022-11-16T07:36:53.069Z,25.8
2022-11-16T07:37:57.505Z,26
2022-11-16T07:39:02.253Z,26.5
2022-11-16T07:40:07.131Z,24.9
2022-11-16T07:41:12.341Z,26.5
2022-11-16T07:42:16.764Z,24.9
2022-11-16T07:43:21.899Z,27.5
2022-11-16T07:44:26.796Z,25.7
2022-11-16T07:45:31.923Z,25.6
2022-11-16T07:46:52.279Z,26.1
2022-11-16T07:47:41.861Z,25.8
2022-11-16T07:48:46.669Z,27.9
2022-11-16T07:49:51.691Z,27.9
2022-11-16T07:50:56.879Z,27
2022-11-16T07:52:04.299Z,28.8
2022-11-16T07:53:09.427Z,27.9
2022-11-16T07:54:14.298Z,28.2
2022-11-16T07:55:19.211Z,27.2
2022-11-16T07:56:23.655Z,29.2
2022-11-16T07:57:28.273Z,27.6
2022-11-16T07:58:33.460Z,27.1
2022-11-16T07:59:37.961Z,27.6
2022-11-16T08:00:42.605Z,29.3
2022-11-16T08:01:47.054Z,28.2
2022-11-16T08:02:51.760Z,27.4
2022-11-16T08:03:56.214Z,27.5
2022-11-16T08:05:00.884Z,27.8
2022-11-16T08:06:06.004Z,28.3
2022-11-16T08:07:13.451Z,27.2
2022-11-16T08:08:18.695Z,29
2022-11-16T08:09:23.315Z,29
2022-11-16T08:10:28.188Z,26.9
2022-11-16T08:11:33.142Z,26.7
2022-11-16T08:12:37.370Z,27.1
2022-11-16T08:13:41.957Z,27.9
2022-11-16T08:14:46.819Z,27.3
2022-11-16T08:15:51.711Z,27.3
2022-11-16T08:16:56.431Z,28.9
2022-11-16T08:18:00.837Z,28
2022-11-16T08:19:05.766Z,29.1
2022-11-16T08:20:10.139Z,29.2
2022-11-16T08:21:14.603Z,29.3
2022-11-16T08:22:19.291Z,28.9
2022-11-16T08:23:24.288Z,28.5
2022-11-16T08:24:29.047Z,27.6
2022-11-16T08:25:33.487Z,28.6
2022-11-16T08:26:38.248Z,29
2022-11-16T08:27:43.151Z,26.4
2022-11-16T08:28:48.327Z,27.5
2022-11-16T08:29:53.216Z,27.8
2022-11-16T08:30:58.251Z,27.6
2022-11-16T08:32:02.735Z,26.9
2022-11-16T08:33:07.127Z,26.1
2022-11-16T08:34:11.771Z,27.8
2022-11-16T08:35:16.418Z,27.9
2022-11-16T08:36:21.215Z,26.1
2022-11-16T08:37:25.784Z,27.2
2022-11-16T08:38:30.509Z,26.6
2022-11-16T08:39:34.899Z,26
2022-11-16T08:40:39.508Z,25.8
2022-11-16T08:41:44.123Z,26
2022-11-16T08:42:48.839Z,25.2
2022-11-16T08:43:53.624Z,25.6
2022-11-16T08:44:58.387Z,25.4
2022-11-16T08:46:02.984Z,24.5
2022-11-16T08:47:07.743Z,24.6
2022-11-16T08:48:12.722Z,24.9
2022-11-16T08:49:17.224Z,23.3
2022-11-16T08:50:21.767Z,23.6
2022-11-16T08:51:26.501Z,24.3
2022-11-16T08:52:31.255Z,23.1
2022-11-16T08:53:36.304Z,22.9
2022-11-16T08:54:40.926Z,25.5
2022-11-16T08:55:45.957Z,23.2
2022-11-16T08:56:50.555Z,23.8
2022-11-16T08:57:55.351Z,23.4
2022-11-16T08:59:00.016Z,24.6
2022-11-16T09:00:04.423Z,24.3
2022-11-16T09:01:09.615Z,23.1
2022-11-16T09:02:14.747Z,24
2022-11-16T09:03:19.418Z,23.9
2022-11-16T09:04:24.071Z,25.8
2022-11-16T09:05:28.544Z,24.4
2022-11-16T09:06:33.146Z,23.8
2022-11-16T09:07:37.634Z,26.1
2022-11-16T09:08:42.219Z,25.5
2022-11-16T09:09:47.199Z,26.3
2022-11-16T09:10:52.132Z,26.7
2022-11-16T09:11:56.739Z,26.6
2022-11-16T09:13:01.483Z,27.8
2022-11-16T09:14:06.312Z,27.4
2022-11-16T09:15:10.987Z,29
2022-11-16T09:16:15.253Z,29.9
2022-11-16T09:17:23.201Z,29
2022-11-16T09:18:24.837Z,28.9
2022-11-16T09:19:29.272Z,29.4
2022-11-16T09:20:33.951Z,28.6
2022-11-16T09:21:38.476Z,29.4
2022-11-16T09:22:43.174Z,28.6
2022-11-16T09:23:47.702Z,30.2
2022-11-16T09:24:52.102Z,29.3
2022-11-16T09:25:57.318Z,28.2
2022-11-16T09:27:01.696Z,26.7
2022-11-16T09:28:06.207Z,27.2
2022-11-16T09:29:10.929Z,28.3
2022-11-16T09:30:15.607Z,29.7
2022-11-16T09:31:23.270Z,27.3
2022-11-16T09:32:24.642Z,27.7
2022-11-16T09:33:29.538Z,26.3
2022-11-16T09:34:33.982Z,29.2
2022-11-16T09:35:38.623Z,27.7
2022-11-16T09:36:43.311Z,27.8
2022-11-16T09:37:48.598Z,28.3
2022-11-16T09:39:19.396Z,31.2
2022-11-16T09:39:57.826Z,27.4
2022-11-16T09:41:02.491Z,28.3
2022-11-16T09:42:10.078Z,26.8
2022-11-16T09:43:25.100Z,25.1
2022-11-16T09:44:37.665Z,26.4
2022-11-16T09:45:45.231Z,27.1
2022-11-16T09:47:00.142Z,26.3
2022-11-16T09:48:05.683Z,25.5
2022-11-16T09:49:17.118Z,25.3
2022-11-16T09:50:21.074Z,26.6
2022-11-16T09:51:28.828Z,26.8
2022-11-16T09:52:33.659Z,25.8
2022-11-16T09:53:38.778Z,24.7
2022-11-16T09:54:42.929Z,25
2022-11-16T09:55:47.850Z,23.4
2022-11-16T09:56:55.254Z,22
2022-11-16T09:57:59.678Z,22.9
2022-11-16T09:59:04.547Z,21.1
2022-11-16T10:00:09.787Z,21.2
2022-11-16T10:01:17.798Z,20.7
2022-11-16T10:02:27.279Z,21
2022-11-16T10:03:32.355Z,19
2022-11-16T10:04:37.285Z,18.5
2022-11-16T10:05:47.558Z,18.3
2022-11-16T10:06:55.636Z,18.6
2022-11-16T10:08:00.395Z,17.3
2022-11-16T10:09:12.966Z,16.7
2022-11-16T10:10:17.890Z,16.1
2022-11-16T10:11:25.498Z,16.6
2022-11-16T10:12:35.159Z,16.2
2022-11-16T10:13:44.779Z,16.9
2022-11-16T10:14:54.483Z,16.8
2022-11-16T10:16:07.815Z,16.1
2022-11-16T10:17:17.708Z,15.3
2022-11-16T10:18:31.003Z,14.8
2022-11-16T10:19:39.347Z,14.4
2022-11-16T10:20:49.013Z,14.2
2022-11-16T10:21:58.573Z,13.6
2022-11-16T10:23:08.375Z,14.6
2022-11-16T10:24:17.866Z,13
2022-11-16T10:25:30.426Z,13.7
2022-11-16T10:26:43.405Z,13.2
2022-11-16T10:27:53.170Z,13.7
2022-11-16T10:29:03.635Z,13.4
2022-11-16T10:30:19.325Z,12.8
2022-11-16T10:31:24.444Z,13
2022-11-16T10:32:34.449Z,13.1
2022-11-16T10:33:41.516Z,13.3
2022-11-16T10:34:46.314Z,14.3
2022-11-16T10:35:58.983Z,13.6
2022-11-16T10:37:10.009Z,14.4
2022-11-16T10:38:18.086Z,14.5
2022-11-16T10:39:25.914Z,16.3
2022-11-16T10:40:30.440Z,15.1
2022-11-16T10:41:37.562Z,15.5
2022-11-16T10:42:44.595Z,14.7
2022-11-16T10:43:54.371Z,14.1
2022-11-16T10:44:59.284Z,15.6
2022-11-16T10:46:12.135Z,15.9
2022-11-16T10:47:28.168Z,14.8
2022-11-16T10:48:37.293Z,15.4
2022-11-16T10:49:47.886Z,16
2022-11-16T10:50:52.638Z,15.2
2022-11-16T10:51:57.124Z,16.2
2022-11-16T10:53:01.659Z,16.8
2022-11-16T10:54:06.155Z,15.9
2022-11-16T10:55:14.050Z,15.7
2022-11-16T10:56:18.390Z,16.5
2022-11-16T10:57:28.123Z,16
2022-11-16T10:58:42.679Z,16.3
2022-11-16T10:59:57.705Z,16
2022-11-16T11:01:02.548Z,15.7
2022-11-16T11:02:06.722Z,17.2
2022-11-16T11:03:22.037Z,16
2022-11-16T11:04:31.861Z,16.1
2022-11-16T11:05:36.511Z,17.2
2022-11-16T11:06:46.458Z,15.9
2022-11-16T11:07:59.532Z,16.8
2022-11-16T11:09:10.899Z,16.9
2022-11-16T11:10:20.955Z,16.8
2022-11-16T11:11:25.386Z,17.2
2022-11-16T11:12:35.382Z,16.8
2022-11-16T11:13:40.432Z,15.5
2022-11-16T11:14:45.467Z,15.9
2022-11-16T11:15:58.734Z,16.9
2022-11-16T11:17:13.852Z,17.3
2022-11-16T11:18:18.518Z,17
2022-11-16T11:19:25.886Z,17.4
2022-11-16T11:20:30.666Z,17.5
2022-11-16T11:21:35.474Z,18.5
2022-11-16T11:22:40.530Z,18
2022-11-16T11:23:59.430Z,18.8
2022-11-16T11:25:00.691Z,18.7
2022-11-16T11:26:05.962Z,17.9
2022-11-16T11:27:11.523Z,18.7
2022-11-16T11:28:15.963Z,18.7
2022-11-16T11:29:20.465Z,18
2022-11-16T11:30:28.027Z,18.7
2022-11-16T11:31:33.234Z,18.3
2022-11-16T11:32:40.898Z,17.9
2022-11-16T11:33:45.486Z,18.3
2022-11-16T11:35:01.009Z,20.7
2022-11-16T11:36:10.771Z,19.9
2022-11-16T11:37:23.854Z,19.5
2022-11-16T11:38:34.950Z,20.6
2022-11-16T11:39:39.975Z,19
2022-11-16T11:40:45.110Z,21.2
2022-11-16T11:41:54.818Z,20.2
2022-11-16T11:43:02.510Z,21.3
2022-11-16T11:44:06.913Z,21.7
2022-11-16T11:45:14.687Z,22.7
2022-11-16T11:46:19.394Z,23.2
2022-11-16T11:48:34.534Z,21.6
2022-11-16T11:49:42.074Z,21.5
2022-11-16T11:50:46.827Z,22.1
2022-11-16T11:51:54.327Z,24.3
2022-11-16T11:52:59.358Z,24.5
2022-11-16T11:54:14.383Z,25.2
2022-11-16T11:55:24.602Z,25.6
2022-11-16T11:56:29.433Z,26.9
2022-11-16T11:57:34.190Z,25.5
2022-11-16T11:58:38.801Z,28
2022-11-16T11:59:43.597Z,28.3
2022-11-16T12:00:48.825Z,30
2022-11-16T12:01:56.433Z,29.5
2022-11-16T12:03:08.996Z,30.3
2022-11-16T12:04:19.202Z,29.2
2022-11-16T12:05:29.122Z,30.8
2022-11-16T12:06:44.398Z,29.9
2022-11-16T12:07:55.298Z,31.4
2022-11-16T12:09:08.363Z,29.1
2022-11-16T12:10:23.037Z,29.9
2022-11-16T12:11:32.786Z,28
2022-11-16T12:12:42.449Z,28.4
2022-11-16T12:13:51.949Z,27.6
2022-11-16T12:15:01.759Z,28.1
2022-11-16T12:16:11.534Z,28.5
2022-11-16T12:17:26.292Z,29.3
2022-11-16T12:18:36.086Z,29.6
2022-11-16T12:19:51.378Z,30.2
2022-11-16T12:21:04.137Z,31.2
2022-11-16T12:22:14.200Z,30.9
2022-11-16T12:23:21.981Z,33.8
2022-11-16T12:24:32.851Z,31.2
2022-11-16T12:25:47.840Z,32.8
2022-11-16T12:26:55.685Z,35.5
2022-11-16T12:28:05.988Z,38.8
2022-11-16T12:29:21.057Z,40.7
2022-11-16T12:30:30.785Z,40.3
2022-11-16T12:31:35.330Z,39
2022-11-16T12:32:39.940Z,40.4
2022-11-16T12:33:55.172Z,40.3
2022-11-16T12:35:02.860Z,40.9
2022-11-16T12:36:08.120Z,43.1
2022-11-16T12:37:22.997Z,41
2022-11-16T12:38:36.165Z,39.6
2022-11-16T12:39:51.041Z,41.7
2022-11-16T12:41:05.870Z,42
2022-11-16T12:42:20.665Z,43.9
2022-11-16T12:43:33.292Z,42.1
2022-11-16T12:44:45.768Z,42.8
2022-11-16T12:45:56.089Z,43.3
2022-11-16T12:47:11.014Z,43.5
2022-11-16T12:48:23.708Z,46.1
2022-11-16T12:49:33.925Z,44.6
2022-11-16T12:50:45.048Z,44.2
2022-11-16T12:51:49.829Z,44.1
2022-11-16T12:52:59.364Z,45
2022-11-16T12:54:09.161Z,46.7
2022-11-16T12:55:27.025Z,48.9
2022-11-16T12:56:30.591Z,50.3
2022-11-16T12:57:45.432Z,50.5
2022-11-16T12:58:54.936Z,48.7
2022-11-16T13:00:09.729Z,45.6
2022-11-16T13:01:16.741Z,50.2
2022-11-16T13:02:30.473Z,48.6
2022-11-16T13:03:46.097Z,45.4
2022-11-16T13:04:53.881Z,45.2
2022-11-16T13:05:58.749Z,48
2022-11-16T13:07:07.940Z,45.5
2022-11-16T13:08:10.820Z,45.8
2022-11-16T13:09:23.537Z,42.5
2022-11-16T13:10:31.157Z,42.1
2022-11-16T13:11:36.334Z,41.2
2022-11-16T13:12:41.185Z,38.7
2022-11-16T13:13:49.857Z,40
2022-11-16T13:14:50.342Z,40
2022-11-16T13:15:54.825Z,38.1
2022-11-16T13:16:59.633Z,37.8
2022-11-16T13:18:03.937Z,36.8
2022-11-16T13:19:08.734Z,35.2
2022-11-16T13:20:14.876Z,33.8
2022-11-16T13:21:25.872Z,32.7
2022-11-16T13:22:35.977Z,31.5
2022-11-16T13:23:40.393Z,30.9
2022-11-16T13:24:44.854Z,29.8
2022-11-16T13:25:54.557Z,30.8
2022-11-16T13:26:59.276Z,29.8
2022-11-16T13:28:09.001Z,28.2
2022-11-16T13:29:21.631Z,26.6
2022-11-16T13:30:31.425Z,26.9
2022-11-16T13:31:35.843Z,26.7
2022-11-16T13:32:41.033Z,24.2
2022-11-16T13:33:51.487Z,24.6
2022-11-16T13:35:00.240Z,23.6
2022-11-16T13:36:14.376Z,23.7
2022-11-16T13:37:32.957Z,23.3
2022-11-16T13:38:37.838Z,22.1
2022-11-16T13:39:50.563Z,22
2022-11-16T13:40:58.777Z,22
2022-11-16T13:42:11.462Z,21.3
2022-11-16T13:43:16.128Z,22.1
2022-11-16T13:44:21.372Z,21.9
2022-11-16T13:45:25.955Z,21.9
2022-11-16T13:46:54.580Z,20.1
2022-11-16T13:47:47.232Z,20.3
2022-11-16T13:48:55.337Z,20.7
2022-11-16T13:50:00.390Z,18.9
2022-11-16T13:51:05.222Z,20.1
2022-11-16T13:52:31.680Z,19.7
2022-11-16T13:55:36.476Z,18.4
2022-11-16T13:56:41.390Z,18
2022-11-16T13:57:48.480Z,18.2
2022-11-16T13:58:52.984Z,18.3
2022-11-16T13:59:57.708Z,17.6
2022-11-16T14:01:02.696Z,17.8
2022-11-16T14:02:07.924Z,16.7
2022-11-16T14:03:23.048Z,19.2
2022-11-16T14:04:31.409Z,18.4
2022-11-16T14:05:37.155Z,23.5
2022-11-16T14:06:42.472Z,23.6
2022-11-16T14:07:47.244Z,21
2022-11-16T14:08:51.640Z,18.7
2022-11-16T14:09:56.740Z,19.2
2022-11-16T14:11:01.884Z,23.9
2022-11-16T14:12:06.464Z,23.5
2022-11-16T14:13:14.073Z,19.8
2022-11-16T14:14:28.880Z,17
2022-11-16T14:15:43.596Z,16.6
2022-11-16T14:16:48.545Z,17.2
2022-11-16T14:17:52.931Z,15.3
2022-11-16T14:18:57.476Z,14.8
2022-11-16T14:20:01.986Z,15.5
2022-11-16T14:21:06.505Z,16
2022-11-16T14:22:21.336Z,16.1
2022-11-16T14:23:26.073Z,12.4
2022-11-16T14:24:31.563Z,12.9
2022-11-16T14:25:41.431Z,11.8
2022-11-16T14:26:46.115Z,11.5
2022-11-16T14:27:53.615Z,11.5
2022-11-16T14:29:03.123Z,11.8
2022-11-16T14:30:07.917Z,12.5
2022-11-16T14:31:19.968Z,11.8
2022-11-16T14:32:27.459Z,11.5
2022-11-16T14:33:32.963Z,12.1
2022-11-16T14:34:37.609Z,11.6
2022-11-16T14:35:41.991Z,17
2022-11-16T14:36:46.411Z,25.2
2022-11-16T14:37:51.493Z,22
2022-11-16T14:39:04.019Z,26.7
2022-11-16T14:40:19.528Z,27.9
2022-11-16T14:41:24.396Z,17.7
2022-11-16T14:42:29.844Z,16.3
2022-11-16T14:43:34.943Z,17.3
2022-11-16T14:44:40.033Z,17.6
2022-11-16T14:45:45.807Z,17.8
2022-11-16T14:46:53.876Z,13.7
2022-11-16T14:47:59.524Z,13.9
2022-11-16T14:49:04.267Z,11.5
2022-11-16T14:50:08.983Z,10
2022-11-16T14:51:18.889Z,9.7
2022-11-16T14:52:23.188Z,9.5
2022-11-16T14:53:31.560Z,9.4
2022-11-16T14:54:33.955Z,10.8
2022-11-16T14:55:38.732Z,12.6
2022-11-16T14:56:46.420Z,14.3